sensor_id;sensor_type;location;lat;lon;timestamp;P1;durP1;ratioP1;P2;durP2;ratioP2
48578;SDS011;34357;51.948;6.132;2023-04-03T00:01:12;8.02;;;2.70;;
48578;SDS011;34357;51.948;6.132;2023-04-03T00:03:39;6.07;;;2.30;;
48578;SDS011;34357;51.948;6.132;2023-04-03T00:06:07;7.22;;;2.30;;
48578;SDS011;34357;51.948;6.132;2023-04-03T00:08:35;7.63;;;2.40;;
48578;SDS011;34357;51.948;6.132;2023-04-03T00:11:01;5.15;;;2.20;;
48578;SDS011;34357;51.948;6.132;2023-04-03T00:13:28;4.60;;;2.45;;
48578;SDS011;34357;51.948;6.132;2023-04-03T00:15:55;6.90;;;2.50;;
48578;SDS011;34357;51.948;6.132;2023-04-03T00:18:20;4.82;;;2.35;;
48578;SDS011;34357;51.948;6.132;2023-04-03T00:20:47;6.68;;;2.40;;
48578;SDS011;34357;51.948;6.132;2023-04-03T00:23:13;7.80;;;2.53;;
48578;SDS011;34357;51.948;6.132;2023-04-03T00:25:38;6.15;;;2.50;;
48578;SDS011;34357;51.948;6.132;2023-04-03T00:28:04;5.97;;;2.10;;
48578;SDS011;34357;51.948;6.132;2023-04-03T00:30:31;6.20;;;2.42;;
48578;SDS011;34357;51.948;6.132;2023-04-03T00:32:57;7.95;;;2.22;;
48578;SDS011;34357;51.948;6.132;2023-04-03T00:35:24;4.80;;;2.03;;
48578;SDS011;34357;51.948;6.132;2023-04-03T00:37:51;6.45;;;2.70;;
48578;SDS011;34357;51.948;6.132;2023-04-03T00:40:18;5.25;;;2.33;;
48578;SDS011;34357;51.948;6.132;2023-04-03T00:42:46;6.47;;;1.98;;
48578;SDS011;34357;51.948;6.132;2023-04-03T00:47:56;3.45;;;1.98;;
48578;SDS011;34357;51.948;6.132;2023-04-03T00:50:25;4.47;;;2.00;;
48578;SDS011;34357;51.948;6.132;2023-04-03T00:52:52;5.15;;;2.13;;
48578;SDS011;34357;51.948;6.132;2023-04-03T00:55:19;6.28;;;2.38;;
48578;SDS011;34357;51.948;6.132;2023-04-03T00:57:45;8.25;;;2.28;;
48578;SDS011;34357;51.948;6.132;2023-04-03T01:00:12;4.78;;;1.90;;
48578;SDS011;34357;51.948;6.132;2023-04-03T01:02:41;5.75;;;2.20;;
48578;SDS011;34357;51.948;6.132;2023-04-03T01:05:09;5.45;;;2.30;;
48578;SDS011;34357;51.948;6.132;2023-04-03T01:07:36;8.73;;;1.95;;
48578;SDS011;34357;51.948;6.132;2023-04-03T01:10:03;8.90;;;2.30;;
48578;SDS011;34357;51.948;6.132;2023-04-03T01:12:33;6.15;;;2.00;;
48578;SDS011;34357;51.948;6.132;2023-04-03T01:15:02;6.60;;;2.65;;
48578;SDS011;34357;51.948;6.132;2023-04-03T01:17:30;8.00;;;2.22;;
48578;SDS011;34357;51.948;6.132;2023-04-03T01:28:11;7.78;;;2.28;;
48578;SDS011;34357;51.948;6.132;2023-04-03T01:30:50;7.45;;;2.30;;
48578;SDS011;34357;51.948;6.132;2023-04-03T01:33:41;5.35;;;2.20;;
48578;SDS011;34357;51.948;6.132;2023-04-03T01:36:08;9.23;;;2.30;;
48578;SDS011;34357;51.948;6.132;2023-04-03T01:38:34;6.72;;;2.47;;
48578;SDS011;34357;51.948;6.132;2023-04-03T01:41:00;6.85;;;2.00;;
48578;SDS011;34357;51.948;6.132;2023-04-03T01:43:27;10.00;;;2.40;;
48578;SDS011;34357;51.948;6.132;2023-04-03T01:45:52;8.43;;;2.45;;
48578;SDS011;34357;51.948;6.132;2023-04-03T01:48:19;7.78;;;2.30;;
48578;SDS011;34357;51.948;6.132;2023-04-03T01:50:45;6.30;;;2.67;;
48578;SDS011;34357;51.948;6.132;2023-04-03T01:53:12;4.05;;;2.20;;
48578;SDS011;34357;51.948;6.132;2023-04-03T01:55:38;7.57;;;2.33;;
48578;SDS011;34357;51.948;6.132;2023-04-03T01:58:04;7.90;;;2.47;;
48578;SDS011;34357;51.948;6.132;2023-04-03T02:00:30;7.55;;;2.40;;
48578;SDS011;34357;51.948;6.132;2023-04-03T02:02:55;5.93;;;2.15;;
48578;SDS011;34357;51.948;6.132;2023-04-03T02:05:22;5.25;;;2.25;;
48578;SDS011;34357;51.948;6.132;2023-04-03T02:07:47;6.80;;;2.22;;
48578;SDS011;34357;51.948;6.132;2023-04-03T02:10:13;8.02;;;2.58;;
48578;SDS011;34357;51.948;6.132;2023-04-03T02:12:40;8.27;;;2.53;;
48578;SDS011;34357;51.948;6.132;2023-04-03T02:15:06;10.70;;;2.28;;
48578;SDS011;34357;51.948;6.132;2023-04-03T02:17:32;7.90;;;2.35;;
48578;SDS011;34357;51.948;6.132;2023-04-03T02:19:59;6.57;;;2.22;;
48578;SDS011;34357;51.948;6.132;2023-04-03T02:22:25;6.82;;;2.42;;
48578;SDS011;34357;51.948;6.132;2023-04-03T02:24:51;5.65;;;2.45;;
48578;SDS011;34357;51.948;6.132;2023-04-03T02:27:17;7.38;;;2.30;;
48578;SDS011;34357;51.948;6.132;2023-04-03T02:29:42;8.38;;;2.42;;
48578;SDS011;34357;51.948;6.132;2023-04-03T02:32:08;8.40;;;2.47;;
48578;SDS011;34357;51.948;6.132;2023-04-03T02:34:34;8.10;;;2.42;;
48578;SDS011;34357;51.948;6.132;2023-04-03T02:37:01;8.00;;;2.78;;
48578;SDS011;34357;51.948;6.132;2023-04-03T02:39:27;5.68;;;2.35;;
48578;SDS011;34357;51.948;6.132;2023-04-03T02:41:54;9.27;;;3.17;;
48578;SDS011;34357;51.948;6.132;2023-04-03T02:44:23;7.82;;;2.42;;
48578;SDS011;34357;51.948;6.132;2023-04-03T02:46:49;7.53;;;2.40;;
48578;SDS011;34357;51.948;6.132;2023-04-03T02:49:16;4.47;;;2.42;;
48578;SDS011;34357;51.948;6.132;2023-04-03T02:51:42;8.38;;;2.65;;
48578;SDS011;34357;51.948;6.132;2023-04-03T02:54:08;7.97;;;2.38;;
48578;SDS011;34357;51.948;6.132;2023-04-03T02:56:37;12.15;;;2.95;;
48578;SDS011;34357;51.948;6.132;2023-04-03T02:59:03;9.00;;;3.15;;
48578;SDS011;34357;51.948;6.132;2023-04-03T03:01:31;7.78;;;3.08;;
48578;SDS011;34357;51.948;6.132;2023-04-03T03:03:58;8.70;;;3.25;;
48578;SDS011;34357;51.948;6.132;2023-04-03T03:06:25;8.40;;;2.47;;
48578;SDS011;34357;51.948;6.132;2023-04-03T03:08:51;9.15;;;2.60;;
48578;SDS011;34357;51.948;6.132;2023-04-03T03:11:16;7.28;;;2.55;;
48578;SDS011;34357;51.948;6.132;2023-04-03T03:13:42;8.68;;;2.65;;
48578;SDS011;34357;51.948;6.132;2023-04-03T03:16:08;8.98;;;3.10;;
48578;SDS011;34357;51.948;6.132;2023-04-03T03:18:34;5.83;;;2.30;;
48578;SDS011;34357;51.948;6.132;2023-04-03T03:21:01;13.47;;;3.17;;
48578;SDS011;34357;51.948;6.132;2023-04-03T03:23:28;8.15;;;2.55;;
48578;SDS011;34357;51.948;6.132;2023-04-03T03:26:00;4.68;;;2.25;;
48578;SDS011;34357;51.948;6.132;2023-04-03T03:28:33;5.78;;;2.63;;
48578;SDS011;34357;51.948;6.132;2023-04-03T03:30:59;6.80;;;2.93;;
48578;SDS011;34357;51.948;6.132;2023-04-03T03:33:25;7.57;;;2.70;;
48578;SDS011;34357;51.948;6.132;2023-04-03T03:35:52;10.40;;;3.00;;
48578;SDS011;34357;51.948;6.132;2023-04-03T03:38:18;7.43;;;2.90;;
48578;SDS011;34357;51.948;6.132;2023-04-03T03:40:46;9.10;;;2.58;;
48578;SDS011;34357;51.948;6.132;2023-04-03T03:43:13;9.05;;;2.90;;
48578;SDS011;34357;51.948;6.132;2023-04-03T03:45:39;6.13;;;3.67;;
48578;SDS011;34357;51.948;6.132;2023-04-03T03:48:05;5.93;;;2.70;;
48578;SDS011;34357;51.948;6.132;2023-04-03T03:50:31;6.97;;;2.58;;
48578;SDS011;34357;51.948;6.132;2023-04-03T03:52:57;10.67;;;2.63;;
48578;SDS011;34357;51.948;6.132;2023-04-03T03:55:23;8.38;;;2.95;;
48578;SDS011;34357;51.948;6.132;2023-04-03T03:57:52;6.43;;;2.77;;
48578;SDS011;34357;51.948;6.132;2023-04-03T04:00:19;8.00;;;3.08;;
48578;SDS011;34357;51.948;6.132;2023-04-03T04:02:51;10.67;;;3.00;;
48578;SDS011;34357;51.948;6.132;2023-04-03T04:05:19;10.97;;;3.27;;
48578;SDS011;34357;51.948;6.132;2023-04-03T04:07:45;14.50;;;3.20;;
48578;SDS011;34357;51.948;6.132;2023-04-03T04:10:11;9.05;;;3.10;;
48578;SDS011;34357;51.948;6.132;2023-04-03T04:12:38;8.03;;;3.50;;
48578;SDS011;34357;51.948;6.132;2023-04-03T04:15:04;7.27;;;3.37;;
48578;SDS011;34357;51.948;6.132;2023-04-03T04:17:30;10.63;;;3.27;;
48578;SDS011;34357;51.948;6.132;2023-04-03T04:19:57;13.07;;;3.40;;
48578;SDS011;34357;51.948;6.132;2023-04-03T04:22:23;13.57;;;3.40;;
48578;SDS011;34357;51.948;6.132;2023-04-03T04:24:49;12.60;;;3.25;;
48578;SDS011;34357;51.948;6.132;2023-04-03T04:27:14;12.82;;;3.10;;
48578;SDS011;34357;51.948;6.132;2023-04-03T04:29:41;8.17;;;2.93;;
48578;SDS011;34357;51.948;6.132;2023-04-03T04:32:07;11.37;;;3.00;;
48578;SDS011;34357;51.948;6.132;2023-04-03T04:34:34;11.77;;;3.40;;
48578;SDS011;34357;51.948;6.132;2023-04-03T04:37:00;9.17;;;3.13;;
48578;SDS011;34357;51.948;6.132;2023-04-03T04:39:26;8.97;;;3.27;;
48578;SDS011;34357;51.948;6.132;2023-04-03T04:41:54;10.73;;;3.10;;
48578;SDS011;34357;51.948;6.132;2023-04-03T04:44:21;8.63;;;3.60;;
48578;SDS011;34357;51.948;6.132;2023-04-03T04:46:47;11.93;;;4.07;;
48578;SDS011;34357;51.948;6.132;2023-04-03T04:49:13;12.80;;;4.03;;
48578;SDS011;34357;51.948;6.132;2023-04-03T04:51:38;9.43;;;3.80;;
48578;SDS011;34357;51.948;6.132;2023-04-03T04:54:04;13.77;;;3.63;;
48578;SDS011;34357;51.948;6.132;2023-04-03T04:56:31;7.27;;;3.10;;
48578;SDS011;34357;51.948;6.132;2023-04-03T04:58:58;8.80;;;3.50;;
48578;SDS011;34357;51.948;6.132;2023-04-03T05:01:24;9.53;;;3.37;;
48578;SDS011;34357;51.948;6.132;2023-04-03T05:03:57;11.03;;;3.83;;
48578;SDS011;34357;51.948;6.132;2023-04-03T05:06:23;13.57;;;4.20;;
48578;SDS011;34357;51.948;6.132;2023-04-03T05:08:50;9.93;;;4.30;;
48578;SDS011;34357;51.948;6.132;2023-04-03T05:11:16;13.60;;;5.10;;
48578;SDS011;34357;51.948;6.132;2023-04-03T05:13:43;13.67;;;3.77;;
48578;SDS011;34357;51.948;6.132;2023-04-03T05:16:09;10.10;;;3.83;;
48578;SDS011;34357;51.948;6.132;2023-04-03T05:18:36;12.00;;;3.70;;
48578;SDS011;34357;51.948;6.132;2023-04-03T05:21:06;13.83;;;3.80;;
48578;SDS011;34357;51.948;6.132;2023-04-03T05:23:32;8.93;;;3.47;;
48578;SDS011;34357;51.948;6.132;2023-04-03T05:26:00;13.37;;;3.87;;
48578;SDS011;34357;51.948;6.132;2023-04-03T05:28:27;12.17;;;4.97;;
48578;SDS011;34357;51.948;6.132;2023-04-03T05:30:54;11.43;;;4.20;;
48578;SDS011;34357;51.948;6.132;2023-04-03T05:33:21;11.23;;;3.60;;
48578;SDS011;34357;51.948;6.132;2023-04-03T05:35:51;9.30;;;3.80;;
48578;SDS011;34357;51.948;6.132;2023-04-03T05:38:22;10.52;;;3.33;;
48578;SDS011;34357;51.948;6.132;2023-04-03T05:40:49;11.90;;;3.20;;
48578;SDS011;34357;51.948;6.132;2023-04-03T05:43:15;9.23;;;2.77;;
48578;SDS011;34357;51.948;6.132;2023-04-03T05:45:43;10.23;;;3.00;;
48578;SDS011;34357;51.948;6.132;2023-04-03T05:48:08;11.93;;;3.50;;
48578;SDS011;34357;51.948;6.132;2023-04-03T05:50:35;8.23;;;2.93;;
48578;SDS011;34357;51.948;6.132;2023-04-03T05:53:01;11.33;;;3.33;;
48578;SDS011;34357;51.948;6.132;2023-04-03T05:55:30;10.67;;;3.47;;
48578;SDS011;34357;51.948;6.132;2023-04-03T05:57:56;10.27;;;3.33;;
48578;SDS011;34357;51.948;6.132;2023-04-03T06:00:22;5.72;;;2.50;;
48578;SDS011;34357;51.948;6.132;2023-04-03T06:02:57;7.72;;;2.40;;
48578;SDS011;34357;51.948;6.132;2023-04-03T06:05:24;7.50;;;2.42;;
48578;SDS011;34357;51.948;6.132;2023-04-03T06:07:50;8.57;;;2.20;;
48578;SDS011;34357;51.948;6.132;2023-04-03T06:10:16;10.45;;;3.50;;
48578;SDS011;34357;51.948;6.132;2023-04-03T06:12:43;10.85;;;3.28;;
48578;SDS011;34357;51.948;6.132;2023-04-03T06:15:09;13.95;;;3.63;;
48578;SDS011;34357;51.948;6.132;2023-04-03T06:17:38;11.95;;;4.35;;
48578;SDS011;34357;51.948;6.132;2023-04-03T06:20:04;11.70;;;3.47;;
48578;SDS011;34357;51.948;6.132;2023-04-03T06:22:31;7.05;;;2.65;;
48578;SDS011;34357;51.948;6.132;2023-04-03T06:24:57;11.27;;;3.90;;
48578;SDS011;34357;51.948;6.132;2023-04-03T06:27:23;7.60;;;2.40;;
48578;SDS011;34357;51.948;6.132;2023-04-03T06:29:48;5.63;;;2.58;;
48578;SDS011;34357;51.948;6.132;2023-04-03T06:32:15;5.00;;;1.70;;
48578;SDS011;34357;51.948;6.132;2023-04-03T06:34:41;10.20;;;2.42;;
48578;SDS011;34357;51.948;6.132;2023-04-03T06:37:20;5.00;;;1.85;;
48578;SDS011;34357;51.948;6.132;2023-04-03T06:39:47;8.40;;;2.28;;
48578;SDS011;34357;51.948;6.132;2023-04-03T06:42:13;8.02;;;1.73;;
48578;SDS011;34357;51.948;6.132;2023-04-03T06:44:47;8.18;;;2.03;;
48578;SDS011;34357;51.948;6.132;2023-04-03T06:47:14;8.60;;;2.78;;
48578;SDS011;34357;51.948;6.132;2023-04-03T06:49:40;7.93;;;2.45;;
48578;SDS011;34357;51.948;6.132;2023-04-03T06:52:07;7.72;;;1.80;;
48578;SDS011;34357;51.948;6.132;2023-04-03T06:54:33;4.72;;;1.95;;
48578;SDS011;34357;51.948;6.132;2023-04-03T06:56:59;8.80;;;2.35;;
48578;SDS011;34357;51.948;6.132;2023-04-03T06:59:25;7.88;;;1.83;;
48578;SDS011;34357;51.948;6.132;2023-04-03T07:01:51;9.05;;;2.00;;
48578;SDS011;34357;51.948;6.132;2023-04-03T07:04:17;5.70;;;2.38;;
48578;SDS011;34357;51.948;6.132;2023-04-03T07:06:45;4.90;;;1.65;;
48578;SDS011;34357;51.948;6.132;2023-04-03T07:09:12;7.00;;;2.17;;
48578;SDS011;34357;51.948;6.132;2023-04-03T07:11:39;7.82;;;1.88;;
48578;SDS011;34357;51.948;6.132;2023-04-03T07:14:05;6.85;;;2.00;;
48578;SDS011;34357;51.948;6.132;2023-04-03T07:16:33;6.88;;;2.05;;
48578;SDS011;34357;51.948;6.132;2023-04-03T07:18:59;4.80;;;1.65;;
48578;SDS011;34357;51.948;6.132;2023-04-03T07:21:26;5.75;;;1.85;;
48578;SDS011;34357;51.948;6.132;2023-04-03T07:23:53;5.63;;;2.33;;
48578;SDS011;34357;51.948;6.132;2023-04-03T07:26:19;7.30;;;2.03;;
48578;SDS011;34357;51.948;6.132;2023-04-03T07:28:48;10.30;;;2.03;;
48578;SDS011;34357;51.948;6.132;2023-04-03T07:31:15;7.88;;;2.00;;
48578;SDS011;34357;51.948;6.132;2023-04-03T07:33:42;7.43;;;2.60;;
48578;SDS011;34357;51.948;6.132;2023-04-03T07:36:09;6.10;;;2.25;;
48578;SDS011;34357;51.948;6.132;2023-04-03T07:38:39;7.97;;;3.03;;
48578;SDS011;34357;51.948;6.132;2023-04-03T07:41:05;7.20;;;2.20;;
48578;SDS011;34357;51.948;6.132;2023-04-03T07:43:31;7.78;;;3.17;;
48578;SDS011;34357;51.948;6.132;2023-04-03T07:45:59;7.72;;;2.55;;
48578;SDS011;34357;51.948;6.132;2023-04-03T07:48:25;6.70;;;2.20;;
48578;SDS011;34357;51.948;6.132;2023-04-03T07:50:51;7.68;;;1.80;;
48578;SDS011;34357;51.948;6.132;2023-04-03T07:53:17;5.35;;;1.88;;
48578;SDS011;34357;51.948;6.132;2023-04-03T07:55:47;6.20;;;1.80;;
48578;SDS011;34357;51.948;6.132;2023-04-03T07:58:14;5.45;;;1.70;;
48578;SDS011;34357;51.948;6.132;2023-04-03T08:00:42;4.22;;;1.50;;
48578;SDS011;34357;51.948;6.132;2023-04-03T08:03:09;7.93;;;1.73;;
48578;SDS011;34357;51.948;6.132;2023-04-03T08:05:36;6.15;;;1.90;;
48578;SDS011;34357;51.948;6.132;2023-04-03T08:08:03;7.07;;;2.13;;
48578;SDS011;34357;51.948;6.132;2023-04-03T08:10:30;5.88;;;1.65;;
48578;SDS011;34357;51.948;6.132;2023-04-03T08:12:56;5.95;;;1.88;;
48578;SDS011;34357;51.948;6.132;2023-04-03T08:15:22;6.25;;;2.10;;
48578;SDS011;34357;51.948;6.132;2023-04-03T08:17:48;5.82;;;1.55;;
48578;SDS011;34357;51.948;6.132;2023-04-03T08:20:14;3.47;;;1.50;;
48578;SDS011;34357;51.948;6.132;2023-04-03T08:22:40;5.75;;;1.70;;
48578;SDS011;34357;51.948;6.132;2023-04-03T08:25:06;6.15;;;1.35;;
48578;SDS011;34357;51.948;6.132;2023-04-03T08:27:32;3.67;;;1.30;;
48578;SDS011;34357;51.948;6.132;2023-04-03T08:29:57;5.68;;;1.58;;
48578;SDS011;34357;51.948;6.132;2023-04-03T08:32:23;3.97;;;1.45;;
48578;SDS011;34357;51.948;6.132;2023-04-03T08:34:49;5.32;;;1.60;;
48578;SDS011;34357;51.948;6.132;2023-04-03T08:37:15;5.00;;;1.23;;
48578;SDS011;34357;51.948;6.132;2023-04-03T08:39:41;4.05;;;1.40;;
48578;SDS011;34357;51.948;6.132;2023-04-03T08:42:53;1.92;;;1.05;;
48578;SDS011;34357;51.948;6.132;2023-04-03T08:45:14;2.20;;;1.00;;
48578;SDS011;34357;51.948;6.132;2023-04-03T08:50:23;3.67;;;1.42;;
48578;SDS011;34357;51.948;6.132;2023-04-03T08:53:00;4.72;;;1.55;;
48578;SDS011;34357;51.948;6.132;2023-04-03T08:58:10;3.50;;;1.50;;
48578;SDS011;34357;51.948;6.132;2023-04-03T09:00:44;5.65;;;1.20;;
48578;SDS011;34357;51.948;6.132;2023-04-03T09:03:21;4.30;;;1.20;;
48578;SDS011;34357;51.948;6.132;2023-04-03T09:05:52;4.47;;;1.10;;
48578;SDS011;34357;51.948;6.132;2023-04-03T09:08:32;3.63;;;0.93;;
48578;SDS011;34357;51.948;6.132;2023-04-03T09:11:21;2.45;;;0.90;;
48578;SDS011;34357;51.948;6.132;2023-04-03T09:13:57;2.45;;;0.70;;
48578;SDS011;34357;51.948;6.132;2023-04-03T09:21:57;2.45;;;0.73;;
48578;SDS011;34357;51.948;6.132;2023-04-03T09:24:26;3.38;;;0.80;;
48578;SDS011;34357;51.948;6.132;2023-04-03T09:27:01;3.15;;;0.88;;
48578;SDS011;34357;51.948;6.132;2023-04-03T09:29:30;1.60;;;0.88;;
48578;SDS011;34357;51.948;6.132;2023-04-03T09:32:00;1.20;;;0.63;;
48578;SDS011;34357;51.948;6.132;2023-04-03T09:34:27;1.45;;;0.55;;
48578;SDS011;34357;51.948;6.132;2023-04-03T09:36:58;1.17;;;0.50;;
48578;SDS011;34357;51.948;6.132;2023-04-03T09:39:31;2.65;;;0.70;;
48578;SDS011;34357;51.948;6.132;2023-04-03T09:42:20;2.88;;;0.70;;
48578;SDS011;34357;51.948;6.132;2023-04-03T09:44:55;1.67;;;0.65;;
48578;SDS011;34357;51.948;6.132;2023-04-03T09:52:37;2.92;;;0.70;;
48578;SDS011;34357;51.948;6.132;2023-04-03T09:55:08;2.40;;;0.70;;
48578;SDS011;34357;51.948;6.132;2023-04-03T09:57:39;2.30;;;0.50;;
48578;SDS011;34357;51.948;6.132;2023-04-03T10:00:06;1.27;;;0.50;;
48578;SDS011;34357;51.948;6.132;2023-04-03T10:02:46;1.90;;;0.65;;
48578;SDS011;34357;51.948;6.132;2023-04-03T10:05:49;2.72;;;0.75;;
48578;SDS011;34357;51.948;6.132;2023-04-03T10:10:34;2.40;;;0.68;;
48578;SDS011;34357;51.948;6.132;2023-04-03T10:13:04;1.85;;;0.73;;
48578;SDS011;34357;51.948;6.132;2023-04-03T10:15:32;1.67;;;0.60;;
48578;SDS011;34357;51.948;6.132;2023-04-03T10:18:07;1.50;;;0.73;;
48578;SDS011;34357;51.948;6.132;2023-04-03T10:21:04;3.22;;;0.73;;
48578;SDS011;34357;51.948;6.132;2023-04-03T10:31:46;1.77;;;0.52;;
48578;SDS011;34357;51.948;6.132;2023-04-03T10:34:21;0.95;;;0.40;;
48578;SDS011;34357;51.948;6.132;2023-04-03T10:39:50;2.97;;;0.73;;
48578;SDS011;34357;51.948;6.132;2023-04-03T10:53:39;1.60;;;0.60;;
48578;SDS011;34357;51.948;6.132;2023-04-03T11:02:04;2.50;;;0.75;;
48578;SDS011;34357;51.948;6.132;2023-04-03T11:04:37;1.85;;;0.68;;
48578;SDS011;34357;51.948;6.132;2023-04-03T11:07:19;1.13;;;0.50;;
48578;SDS011;34357;51.948;6.132;2023-04-03T11:09:50;2.22;;;0.55;;
48578;SDS011;34357;51.948;6.132;2023-04-03T11:12:35;1.88;;;0.50;;
48578;SDS011;34357;51.948;6.132;2023-04-03T11:15:12;4.07;;;0.68;;
48578;SDS011;34357;51.948;6.132;2023-04-03T11:17:46;2.35;;;1.00;;
48578;SDS011;34357;51.948;6.132;2023-04-03T11:20:18;2.92;;;0.73;;
48578;SDS011;34357;51.948;6.132;2023-04-03T11:23:00;1.95;;;0.60;;
48578;SDS011;34357;51.948;6.132;2023-04-03T11:25:35;1.08;;;0.60;;
48578;SDS011;34357;51.948;6.132;2023-04-03T11:28:05;0.93;;;0.52;;
48578;SDS011;34357;51.948;6.132;2023-04-03T11:36:22;2.40;;;0.70;;
48578;SDS011;34357;51.948;6.132;2023-04-03T11:38:52;2.25;;;1.00;;
48578;SDS011;34357;51.948;6.132;2023-04-03T11:41:29;2.28;;;0.60;;
48578;SDS011;34357;51.948;6.132;2023-04-03T11:44:01;1.17;;;0.65;;
48578;SDS011;34357;51.948;6.132;2023-04-03T12:08:27;1.77;;;0.75;;
48578;SDS011;34357;51.948;6.132;2023-04-03T12:24:03;2.33;;;0.98;;
48578;SDS011;34357;51.948;6.132;2023-04-03T12:29:13;3.38;;;0.90;;
48578;SDS011;34357;51.948;6.132;2023-04-03T12:37:09;4.05;;;1.10;;
48578;SDS011;34357;51.948;6.132;2023-04-03T12:45:20;3.00;;;0.90;;
48578;SDS011;34357;51.948;6.132;2023-04-03T12:47:48;4.65;;;1.40;;
48578;SDS011;34357;51.948;6.132;2023-04-03T12:50:17;2.58;;;1.40;;
48578;SDS011;34357;51.948;6.132;2023-04-03T12:53:05;3.70;;;1.40;;
48578;SDS011;34357;51.948;6.132;2023-04-03T12:55:36;3.30;;;0.98;;
48578;SDS011;34357;51.948;6.132;2023-04-03T12:58:16;2.63;;;1.02;;
48578;SDS011;34357;51.948;6.132;2023-04-03T13:00:48;2.17;;;1.00;;
48578;SDS011;34357;51.948;6.132;2023-04-03T13:03:29;4.63;;;1.00;;
48578;SDS011;34357;51.948;6.132;2023-04-03T13:05:57;4.43;;;1.15;;
48578;SDS011;34357;51.948;6.132;2023-04-03T13:08:28;3.13;;;1.00;;
48578;SDS011;34357;51.948;6.132;2023-04-03T13:11:09;2.80;;;0.82;;
48578;SDS011;34357;51.948;6.132;2023-04-03T13:13:37;5.10;;;1.08;;
48578;SDS011;34357;51.948;6.132;2023-04-03T13:16:10;2.35;;;0.90;;
48578;SDS011;34357;51.948;6.132;2023-04-03T13:18:38;3.47;;;0.80;;
48578;SDS011;34357;51.948;6.132;2023-04-03T13:21:05;4.10;;;1.45;;
48578;SDS011;34357;51.948;6.132;2023-04-03T13:23:38;3.17;;;1.15;;
48578;SDS011;34357;51.948;6.132;2023-04-03T13:26:08;5.93;;;1.17;;
48578;SDS011;34357;51.948;6.132;2023-04-03T13:28:34;2.83;;;1.23;;
48578;SDS011;34357;51.948;6.132;2023-04-03T13:33:28;2.55;;;1.00;;
48578;SDS011;34357;51.948;6.132;2023-04-03T13:36:05;1.88;;;0.90;;
48578;SDS011;34357;51.948;6.132;2023-04-03T13:38:45;3.72;;;1.08;;
48578;SDS011;34357;51.948;6.132;2023-04-03T13:41:26;4.57;;;1.10;;
48578;SDS011;34357;51.948;6.132;2023-04-03T13:44:14;5.28;;;1.70;;
48578;SDS011;34357;51.948;6.132;2023-04-03T13:46:52;4.57;;;1.35;;
48578;SDS011;34357;51.948;6.132;2023-04-03T13:51:51;2.90;;;1.10;;
48578;SDS011;34357;51.948;6.132;2023-04-03T13:54:19;2.75;;;1.00;;
48578;SDS011;34357;51.948;6.132;2023-04-03T13:56:46;2.45;;;1.20;;
48578;SDS011;34357;51.948;6.132;2023-04-03T14:01:51;4.88;;;1.20;;
48578;SDS011;34357;51.948;6.132;2023-04-03T14:04:32;4.45;;;1.08;;
48578;SDS011;34357;51.948;6.132;2023-04-03T14:06:59;2.42;;;1.00;;
48578;SDS011;34357;51.948;6.132;2023-04-03T14:09:26;4.72;;;1.30;;
48578;SDS011;34357;51.948;6.132;2023-04-03T14:11:57;2.92;;;1.17;;
48578;SDS011;34357;51.948;6.132;2023-04-03T14:14:30;3.45;;;1.15;;
48578;SDS011;34357;51.948;6.132;2023-04-03T14:17:00;3.63;;;1.30;;
48578;SDS011;34357;51.948;6.132;2023-04-03T14:19:32;5.20;;;1.30;;
48578;SDS011;34357;51.948;6.132;2023-04-03T14:22:00;4.65;;;1.75;;
48578;SDS011;34357;51.948;6.132;2023-04-03T14:24:31;2.35;;;1.10;;
48578;SDS011;34357;51.948;6.132;2023-04-03T14:26:57;3.90;;;1.48;;
48578;SDS011;34357;51.948;6.132;2023-04-03T14:29:23;6.07;;;1.60;;
48578;SDS011;34357;51.948;6.132;2023-04-03T14:31:49;6.35;;;1.20;;
48578;SDS011;34357;51.948;6.132;2023-04-03T14:34:16;2.80;;;1.10;;
48578;SDS011;34357;51.948;6.132;2023-04-03T14:36:42;3.70;;;1.15;;
48578;SDS011;34357;51.948;6.132;2023-04-03T14:39:18;7.03;;;1.80;;
48578;SDS011;34357;51.948;6.132;2023-04-03T14:41:45;4.20;;;1.10;;
48578;SDS011;34357;51.948;6.132;2023-04-03T14:44:11;5.60;;;1.40;;
48578;SDS011;34357;51.948;6.132;2023-04-03T14:46:38;6.00;;;1.50;;
48578;SDS011;34357;51.948;6.132;2023-04-03T14:49:18;5.50;;;1.70;;
48578;SDS011;34357;51.948;6.132;2023-04-03T14:51:46;5.55;;;1.67;;
48578;SDS011;34357;51.948;6.132;2023-04-03T14:54:16;4.57;;;1.25;;
48578;SDS011;34357;51.948;6.132;2023-04-03T14:56:50;5.05;;;1.83;;
48578;SDS011;34357;51.948;6.132;2023-04-03T14:59:17;5.97;;;1.35;;
48578;SDS011;34357;51.948;6.132;2023-04-03T15:01:45;4.22;;;1.40;;
48578;SDS011;34357;51.948;6.132;2023-04-03T15:04:15;4.55;;;1.55;;
48578;SDS011;34357;51.948;6.132;2023-04-03T15:06:45;4.55;;;1.40;;
48578;SDS011;34357;51.948;6.132;2023-04-03T15:09:22;4.53;;;1.45;;
48578;SDS011;34357;51.948;6.132;2023-04-03T15:11:50;5.38;;;1.67;;
48578;SDS011;34357;51.948;6.132;2023-04-03T15:14:17;4.60;;;1.40;;
48578;SDS011;34357;51.948;6.132;2023-04-03T15:16:43;6.05;;;1.70;;
48578;SDS011;34357;51.948;6.132;2023-04-03T15:19:09;4.43;;;1.58;;
48578;SDS011;34357;51.948;6.132;2023-04-03T15:21:36;5.43;;;1.48;;
48578;SDS011;34357;51.948;6.132;2023-04-03T15:24:02;3.03;;;1.33;;
48578;SDS011;34357;51.948;6.132;2023-04-03T15:26:29;3.92;;;1.40;;
48578;SDS011;34357;51.948;6.132;2023-04-03T15:28:55;4.82;;;1.40;;
48578;SDS011;34357;51.948;6.132;2023-04-03T15:31:21;4.50;;;1.30;;
48578;SDS011;34357;51.948;6.132;2023-04-03T15:33:46;5.15;;;1.58;;
48578;SDS011;34357;51.948;6.132;2023-04-03T15:36:12;4.80;;;1.35;;
48578;SDS011;34357;51.948;6.132;2023-04-03T15:38:38;5.40;;;1.20;;
48578;SDS011;34357;51.948;6.132;2023-04-03T15:41:04;4.30;;;1.25;;
48578;SDS011;34357;51.948;6.132;2023-04-03T15:43:30;7.13;;;1.70;;
48578;SDS011;34357;51.948;6.132;2023-04-03T15:45:57;8.45;;;2.03;;
48578;SDS011;34357;51.948;6.132;2023-04-03T15:48:24;5.47;;;1.90;;
48578;SDS011;34357;51.948;6.132;2023-04-03T15:50:50;5.72;;;2.00;;
48578;SDS011;34357;51.948;6.132;2023-04-03T15:53:16;4.03;;;1.38;;
48578;SDS011;34357;51.948;6.132;2023-04-03T15:55:42;6.07;;;2.22;;
48578;SDS011;34357;51.948;6.132;2023-04-03T15:58:08;5.85;;;1.92;;
48578;SDS011;34357;51.948;6.132;2023-04-03T16:00:33;5.35;;;1.73;;
48578;SDS011;34357;51.948;6.132;2023-04-03T16:03:03;3.78;;;1.40;;
48578;SDS011;34357;51.948;6.132;2023-04-03T16:05:31;7.78;;;3.47;;
48578;SDS011;34357;51.948;6.132;2023-04-03T16:07:58;4.60;;;2.20;;
48578;SDS011;34357;51.948;6.132;2023-04-03T16:10:25;5.03;;;2.15;;
48578;SDS011;34357;51.948;6.132;2023-04-03T16:12:52;7.30;;;2.08;;
48578;SDS011;34357;51.948;6.132;2023-04-03T16:15:18;11.75;;;2.30;;
48578;SDS011;34357;51.948;6.132;2023-04-03T16:17:44;6.53;;;1.70;;
48578;SDS011;34357;51.948;6.132;2023-04-03T16:20:11;7.45;;;2.22;;
48578;SDS011;34357;51.948;6.132;2023-04-03T16:22:38;6.05;;;1.55;;
48578;SDS011;34357;51.948;6.132;2023-04-03T16:25:05;3.28;;;1.30;;
48578;SDS011;34357;51.948;6.132;2023-04-03T16:27:31;5.90;;;1.60;;
48578;SDS011;34357;51.948;6.132;2023-04-03T16:29:57;6.22;;;1.95;;
48578;SDS011;34357;51.948;6.132;2023-04-03T16:32:23;5.28;;;1.55;;
48578;SDS011;34357;51.948;6.132;2023-04-03T16:34:51;3.40;;;1.40;;
48578;SDS011;34357;51.948;6.132;2023-04-03T16:37:17;3.85;;;1.33;;
48578;SDS011;34357;51.948;6.132;2023-04-03T16:39:43;6.13;;;1.42;;
48578;SDS011;34357;51.948;6.132;2023-04-03T16:42:09;4.10;;;1.60;;
48578;SDS011;34357;51.948;6.132;2023-04-03T16:44:35;4.03;;;1.55;;
48578;SDS011;34357;51.948;6.132;2023-04-03T16:47:01;4.22;;;1.58;;
48578;SDS011;34357;51.948;6.132;2023-04-03T16:49:27;3.05;;;1.38;;
48578;SDS011;34357;51.948;6.132;2023-04-03T16:51:58;5.13;;;1.17;;
48578;SDS011;34357;51.948;6.132;2023-04-03T16:54:24;3.40;;;1.42;;